Time;durP1;ratioP1;P1;durP2;ratioP2;P2;SDS_P1;SDS_P2;PMS_P1;PMS_P2;Temp;Humidity;BMP_temperature;BMP_pressure;BME280_temperature;BME280_humidity;BME280_pressure;Samples;Min_cycle;Max_cycle;Signal;HPM_P1;HPM_P2
2024/04/05 00:02:14;;;;;;;;;;;10.30;99.90;;;;;;4986765;28;19982;-89
2024/04/05 00:04:39;;;;;;;;;;;10.30;99.90;;;;;;4989424;28;19949;-88
2024/04/05 00:07:05;;;;;;;;;;;10.30;99.90;;;;;;5003154;28;20022;-88
2024/04/05 00:09:30;;;;;;;;;;;10.30;99.90;;;;;;4985981;28;19913;-88
2024/04/05 00:11:56;;;;;;;;;;;10.40;99.90;;;;;;5004212;28;19910;-89
2024/04/05 00:14:21;;;;;;;;;;;10.30;99.90;;;;;;5004466;28;19910;-89
2024/04/05 00:16:48;;;;;;;;;;;10.30;99.90;;;;;;4985949;28;19917;-88
2024/04/05 00:19:14;;;;;;;;;;;10.30;99.90;;;;;;4986880;28;20362;-89
2024/04/05 00:21:39;;;;;;;;;;;10.30;99.90;;;;;;5005415;28;19912;-88
2024/04/05 00:24:05;;;;;;;;;;;10.30;99.90;;;;;;5004282;28;20293;-88
2024/04/05 00:26:30;;;;;;;;;;;10.40;99.90;;;;;;4986074;28;19909;-88
2024/04/05 00:28:56;;;;;;;;;;;10.40;99.90;;;;;;5001356;28;19933;-88
2024/04/05 00:31:21;;;;;;;;;;;10.40;99.90;;;;;;5009705;28;20370;-89
2024/04/05 00:33:47;;;;;;;;;;;10.40;99.90;;;;;;5001855;28;19933;-89
2024/04/05 00:36:14;;;;;;;;;;;10.40;99.90;;;;;;4984506;28;19906;-89
2024/04/05 00:38:40;;;;;;;;;;;10.40;99.90;;;;;;4996995;28;19906;-87
2024/04/05 00:41:05;;;;;;;;;;;10.40;99.90;;;;;;5000414;28;19928;-87
2024/04/05 00:43:31;;;;;;;;;;;10.40;99.90;;;;;;5001664;28;20067;-87
2024/04/05 00:45:56;;;;;;;;;;;10.50;99.90;;;;;;5001333;28;19914;-89
2024/04/05 00:48:22;;;;;;;;;;;10.50;99.90;;;;;;5002658;28;19910;-89
2024/04/05 00:50:52;;;;;;;;;;;10.50;99.90;;;;;;4986760;28;19960;-89
2024/04/05 00:53:29;;;;;;;;;;;10.50;99.90;;;;;;4986910;28;19910;-90
2024/04/05 00:55:55;;;;;;;;;;;10.50;99.90;;;;;;4969885;28;19910;-90
2024/04/05 00:58:21;;;;;;;;;;;10.50;99.90;;;;;;4969139;28;19913;-88
2024/04/05 01:00:47;;;;;;;;;;;10.60;99.90;;;;;;4999539;28;20763;-90
2024/04/05 01:03:13;;;;;;;;;;;10.60;99.90;;;;;;4986867;28;19906;-89
2024/04/05 01:05:39;;;;;;;;;;;10.60;99.90;;;;;;4985827;28;19905;-89
2024/04/05 01:08:05;;;;;;;;;;;10.60;99.90;;;;;;4984797;28;19969;-89
2024/04/05 01:10:30;;;;;;;;;;;10.60;99.90;;;;;;5003645;28;20010;-89
2024/04/05 01:12:57;;;;;;;;;;;10.60;99.90;;;;;;5003945;28;19930;-89
2024/04/05 01:15:22;;;;;;;;;;;10.70;99.90;;;;;;5004162;28;19912;-89
2024/04/05 01:17:49;;;;;;;;;;;10.70;99.90;;;;;;5004493;28;20289;-89
2024/04/05 01:20:16;;;;;;;;;;;10.70;99.90;;;;;;5000092;28;19909;-89
2024/04/05 01:22:51;;;;;;;;;;;10.70;99.90;;;;;;5002386;28;19956;-89
2024/04/05 01:25:17;;;;;;;;;;;10.70;99.90;;;;;;4985918;28;19914;-87
2024/04/05 01:27:43;;;;;;;;;;;10.70;99.90;;;;;;4987838;28;19941;-86
2024/04/05 01:30:09;;;;;;;;;;;10.70;99.90;;;;;;5005344;28;19909;-86
2024/04/05 01:32:34;;;;;;;;;;;10.60;99.90;;;;;;4987225;28;19990;-87
2024/04/05 01:34:59;;;;;;;;;;;10.60;99.90;;;;;;4985838;28;19966;-87
2024/04/05 01:37:25;;;;;;;;;;;10.60;99.90;;;;;;4985352;28;19905;-87
2024/04/05 01:39:50;;;;;;;;;;;10.50;99.90;;;;;;4987771;28;19912;-86
2024/04/05 01:42:16;;;;;;;;;;;10.50;99.90;;;;;;4989600;28;19998;-86
2024/04/05 01:44:41;;;;;;;;;;;10.50;99.90;;;;;;4988130;28;19929;-86
2024/04/05 01:47:07;;;;;;;;;;;10.40;99.90;;;;;;5004182;28;19988;-87
2024/04/05 01:49:33;;;;;;;;;;;10.40;99.90;;;;;;4985997;28;19906;-87
2024/04/05 01:51:58;;;;;;;;;;;10.40;99.90;;;;;;4986332;28;19913;-87
2024/04/05 01:54:25;;;;;;;;;;;10.40;99.90;;;;;;4987115;28;19906;-86
2024/04/05 01:56:50;;;;;;;;;;;10.30;99.90;;;;;;4988380;28;19906;-87
2024/04/05 01:59:16;;;;;;;;;;;10.30;99.90;;;;;;5004369;28;19928;-86
2024/04/05 02:01:41;;;;;;;;;;;10.40;99.90;;;;;;4989692;28;19949;-86
2024/04/05 02:04:07;;;;;;;;;;;10.30;99.90;;;;;;5001455;28;20392;-86
2024/04/05 02:06:32;;;;;;;;;;;10.40;99.90;;;;;;4984544;28;19972;-86
2024/04/05 02:08:58;;;;;;;;;;;10.40;99.90;;;;;;4993446;28;19912;-86
2024/04/05 02:11:23;;;;;;;;;;;10.40;99.90;;;;;;5002494;28;19916;-89
2024/04/05 02:13:49;;;;;;;;;;;10.40;99.90;;;;;;5002636;28;19938;-89
2024/04/05 02:16:14;;;;;;;;;;;10.40;99.90;;;;;;4984323;28;19912;-88
2024/04/05 02:18:40;;;;;;;;;;;10.40;99.90;;;;;;4998709;28;19910;-87
2024/04/05 02:21:05;;;;;;;;;;;10.40;99.90;;;;;;4998954;28;19913;-87
2024/04/05 02:23:31;;;;;;;;;;;10.40;99.90;;;;;;4983498;28;19906;-86
2024/04/05 02:25:57;;;;;;;;;;;10.30;99.90;;;;;;5004956;23;19922;-55
2024/04/05 02:28:22;;;;;;;;;;;10.30;99.90;;;;;;5014131;28;19919;-55
2024/04/05 02:30:48;;;;;;;;;;;10.30;99.90;;;;;;5006852;28;19913;-52
2024/04/05 02:33:13;;;;;;;;;;;10.30;99.90;;;;;;4995208;28;19952;-53
2024/04/05 02:35:39;;;;;;;;;;;10.30;99.90;;;;;;4994796;28;19960;-55
2024/04/05 02:38:05;;;;;;;;;;;10.20;99.90;;;;;;4994730;28;20324;-55
2024/04/05 02:40:30;;;;;;;;;;;10.20;99.90;;;;;;4994531;28;19932;-52
2024/04/05 02:42:56;;;;;;;;;;;10.20;99.90;;;;;;4994957;28;20304;-53
2024/04/05 02:45:21;;;;;;;;;;;10.20;99.90;;;;;;4994352;28;20282;-53
2024/04/05 02:47:47;;;;;;;;;;;10.20;99.90;;;;;;4994790;28;19910;-53
2024/04/05 02:50:12;;;;;;;;;;;10.20;99.90;;;;;;4994799;28;19906;-52
2024/04/05 02:52:38;;;;;;;;;;;10.20;99.90;;;;;;4994712;28;19906;-53
2024/04/05 02:55:05;;;;;;;;;;;10.10;99.90;;;;;;4994802;28;19937;-56
2024/04/05 02:57:33;;;;;;;;;;;10.10;99.90;;;;;;4993225;28;20325;-53
2024/04/05 02:59:59;;;;;;;;;;;10.00;99.90;;;;;;4994457;28;19906;-54
2024/04/05 03:02:24;;;;;;;;;;;9.90;99.90;;;;;;4994399;28;19960;-53
2024/04/05 03:04:50;;;;;;;;;;;9.90;99.90;;;;;;4994406;28;19913;-57
2024/04/05 03:07:15;;;;;;;;;;;9.80;99.90;;;;;;4994548;28;19980;-56
2024/04/05 03:09:40;;;;;;;;;;;9.90;99.90;;;;;;4994683;28;20309;-54
2024/04/05 03:12:06;;;;;;;;;;;10.00;99.90;;;;;;4994551;28;19909;-56
2024/04/05 03:14:32;;;;;;;;;;;10.10;99.90;;;;;;4994244;28;20384;-52
2024/04/05 03:16:57;;;;;;;;;;;10.10;99.90;;;;;;4994222;28;19906;-56
2024/04/05 03:19:23;;;;;;;;;;;10.00;99.90;;;;;;4993724;28;20395;-57
2024/04/05 03:21:49;;;;;;;;;;;10.10;99.90;;;;;;4994368;28;20000;-56
2024/04/05 03:24:14;;;;;;;;;;;10.00;99.90;;;;;;4994625;28;20362;-57
2024/04/05 03:26:42;;;;;;;;;;;10.00;99.90;;;;;;4994363;28;20358;-57
2024/04/05 03:29:08;;;;;;;;;;;9.90;99.90;;;;;;4994035;28;19905;-54
2024/04/05 03:31:34;;;;;;;;;;;9.90;99.90;;;;;;4994106;28;19913;-55
2024/04/05 03:34:00;;;;;;;;;;;10.00;99.90;;;;;;4994118;28;19922;-51
2024/04/05 03:36:25;;;;;;;;;;;10.00;99.90;;;;;;4994194;28;19912;-52
2024/04/05 03:38:51;;;;;;;;;;;10.10;99.90;;;;;;4994072;28;20608;-50
2024/04/05 03:41:16;;;;;;;;;;;10.10;99.90;;;;;;4994546;28;19917;-51
2024/04/05 03:43:42;;;;;;;;;;;10.20;99.90;;;;;;5009327;28;19985;-53
2024/04/05 03:46:07;;;;;;;;;;;10.20;99.90;;;;;;4994330;28;19913;-52
2024/04/05 03:48:33;;;;;;;;;;;10.30;99.90;;;;;;4994090;28;19996;-54
2024/04/05 03:50:58;;;;;;;;;;;10.30;99.90;;;;;;4994274;28;20348;-57
2024/04/05 03:53:24;;;;;;;;;;;10.30;99.90;;;;;;4993791;28;19909;-53
2024/04/05 03:55:55;;;;;;;;;;;10.50;99.90;;;;;;4993725;28;19906;-53
2024/04/05 03:58:21;;;;;;;;;;;10.50;99.90;;;;;;4993570;28;19906;-51
2024/04/05 04:00:54;;;;;;;;;;;10.60;99.90;;;;;;4993565;28;20339;-52
2024/04/05 04:03:19;;;;;;;;;;;10.60;99.90;;;;;;4993878;28;19921;-53
2024/04/05 04:05:44;;;;;;;;;;;10.70;99.90;;;;;;4993521;28;19909;-50
2024/04/05 04:08:10;;;;;;;;;;;10.70;99.90;;;;;;4993767;28;19952;-53
2024/04/05 04:10:36;;;;;;;;;;;10.80;99.90;;;;;;4992319;28;19914;-53
2024/04/05 04:13:01;;;;;;;;;;;10.80;99.90;;;;;;4993756;28;19960;-51
2024/04/05 04:15:27;;;;;;;;;;;10.80;99.90;;;;;;4993473;28;19913;-54
2024/04/05 04:17:52;;;;;;;;;;;10.90;99.90;;;;;;4996275;28;19906;-52
2024/04/05 04:20:19;;;;;;;;;;;10.90;99.90;;;;;;4980100;28;19906;-54
2024/04/05 04:22:44;;;;;;;;;;;10.90;99.90;;;;;;4997437;28;19905;-53
2024/04/05 04:25:11;;;;;;;;;;;11.00;99.90;;;;;;4997100;28;20396;-54
2024/04/05 04:27:37;;;;;;;;;;;11.00;99.90;;;;;;4994947;28;19913;-52
2024/04/05 04:30:04;;;;;;;;;;;11.00;99.90;;;;;;4996738;28;19906;-53
2024/04/05 04:32:29;;;;;;;;;;;11.00;99.90;;;;;;4996641;28;19905;-53
2024/04/05 04:34:55;;;;;;;;;;;11.00;99.90;;;;;;4997027;28;19929;-52
2024/04/05 04:37:21;;;;;;;;;;;11.10;99.90;;;;;;4997285;28;19905;-54
2024/04/05 04:39:46;;;;;;;;;;;11.00;99.90;;;;;;4997282;28;20385;-52
2024/04/05 04:42:12;;;;;;;;;;;11.10;99.90;;;;;;4997177;28;19952;-53
2024/04/05 04:44:37;;;;;;;;;;;11.10;99.90;;;;;;4997229;28;19909;-53
2024/04/05 04:47:04;;;;;;;;;;;11.10;99.90;;;;;;4996826;28;20393;-52
2024/04/05 04:49:30;;;;;;;;;;;11.10;99.90;;;;;;4996667;28;19906;-52
2024/04/05 04:51:55;;;;;;;;;;;11.10;99.90;;;;;;4997075;28;19909;-53
2024/04/05 04:54:21;;;;;;;;;;;11.10;99.90;;;;;;4996614;28;19906;-50
2024/04/05 04:56:47;;;;;;;;;;;11.10;99.90;;;;;;4995375;28;19909;-52
2024/04/05 04:59:13;;;;;;;;;;;11.10;99.90;;;;;;4996488;28;19909;-53
2024/04/05 05:01:40;;;;;;;;;;;11.10;99.90;;;;;;4996690;28;20320;-53
2024/04/05 05:04:05;;;;;;;;;;;11.10;99.90;;;;;;4997080;28;20358;-54
2024/04/05 05:06:32;;;;;;;;;;;11.10;99.90;;;;;;4996370;28;19912;-54
2024/04/05 05:08:58;;;;;;;;;;;11.00;99.90;;;;;;4996341;28;20270;-50
2024/04/05 05:11:23;;;;;;;;;;;11.00;99.90;;;;;;4996392;28;19938;-51
2024/04/05 05:13:49;;;;;;;;;;;11.00;99.90;;;;;;4997128;28;20285;-53
2024/04/05 05:16:16;;;;;;;;;;;11.00;99.90;;;;;;4995936;28;19960;-51
2024/04/05 05:18:42;;;;;;;;;;;11.10;99.90;;;;;;4996217;28;19948;-54
2024/04/05 05:21:08;;;;;;;;;;;11.10;99.90;;;;;;4995160;28;19906;-50
2024/04/05 05:23:34;;;;;;;;;;;11.10;99.90;;;;;;4996170;28;19906;-54
2024/04/05 05:26:02;;;;;;;;;;;11.20;99.90;;;;;;4996192;28;19918;-50
2024/04/05 05:28:28;;;;;;;;;;;11.10;99.90;;;;;;4959257;28;19917;-57
2024/04/05 05:30:53;;;;;;;;;;;11.10;99.90;;;;;;4976950;28;19906;-54
2024/04/05 05:33:19;;;;;;;;;;;11.20;99.90;;;;;;4976225;28;20346;-54
2024/04/05 05:35:44;;;;;;;;;;;11.20;99.90;;;;;;4976417;28;19993;-54
2024/04/05 05:38:10;;;;;;;;;;;11.20;99.90;;;;;;4985433;28;19910;-54
2024/04/05 05:40:35;;;;;;;;;;;11.30;99.90;;;;;;4995514;28;20561;-54
2024/04/05 05:43:01;;;;;;;;;;;11.30;99.90;;;;;;4995895;28;19992;-54
2024/04/05 05:45:28;;;;;;;;;;;11.30;99.90;;;;;;4995732;28;20340;-54
2024/04/05 05:47:54;;;;;;;;;;;11.30;99.90;;;;;;4995614;28;19910;-57
2024/04/05 05:50:20;;;;;;;;;;;11.30;99.90;;;;;;5008151;28;19956;-54
2024/04/05 05:52:45;;;;;;;;;;;11.30;99.90;;;;;;4995833;28;19913;-56
2024/04/05 05:55:11;;;;;;;;;;;11.30;99.90;;;;;;4995588;28;19910;-56
2024/04/05 05:57:36;;;;;;;;;;;11.30;99.90;;;;;;4994309;28;20553;-52
2024/04/05 06:00:02;;;;;;;;;;;11.40;99.90;;;;;;4994962;28;20407;-53
2024/04/05 06:02:27;;;;;;;;;;;11.40;99.90;;;;;;4995135;28;19945;-52
2024/04/05 06:04:53;;;;;;;;;;;11.40;99.90;;;;;;4995231;28;19905;-52
2024/04/05 06:07:18;;;;;;;;;;;11.50;99.90;;;;;;4994775;28;19957;-50
2024/04/05 06:09:50;;;;;;;;;;;11.50;99.90;;;;;;4994864;28;20425;-50
2024/04/05 06:12:15;;;;;;;;;;;11.50;99.90;;;;;;4977429;28;19905;-52
2024/04/05 06:14:42;;;;;;;;;;;11.50;99.90;;;;;;4994994;28;20377;-53
2024/04/05 06:17:11;;;;;;;;;;;11.50;99.90;;;;;;4994987;28;19916;-55
2024/04/05 06:19:38;;;;;;;;;;;11.60;99.90;;;;;;4994854;28;20372;-57
2024/04/05 06:22:04;;;;;;;;;;;11.60;99.90;;;;;;4995196;28;19905;-55
2024/04/05 06:24:30;;;;;;;;;;;11.80;99.90;;;;;;4994936;28;19906;-52
2024/04/05 06:26:55;;;;;;;;;;;12.10;99.90;;;;;;4977584;28;19906;-53
2024/04/05 06:29:20;;;;;;;;;;;12.40;99.90;;;;;;4994667;28;19912;-53
2024/04/05 06:31:46;;;;;;;;;;;12.70;99.90;;;;;;4994925;28;19909;-55
2024/04/05 06:34:11;;;;;;;;;;;13.10;99.90;;;;;;4994993;28;19910;-52
2024/04/05 06:36:37;;;;;;;;;;;13.60;99.90;;;;;;4994427;28;19906;-51
2024/04/05 06:39:04;;;;;;;;;;;13.90;99.90;;;;;;4976618;28;19906;-53
2024/04/05 06:41:31;;;;;;;;;;;14.30;99.90;;;;;;4994819;28;19906;-51
2024/04/05 06:43:56;;;;;;;;;;;14.40;99.90;;;;;;4995289;28;19913;-51
2024/04/05 06:46:24;;;;;;;;;;;14.60;99.90;;;;;;4994494;28;20266;-54
2024/04/05 06:48:50;;;;;;;;;;;14.80;99.90;;;;;;4994786;28;20297;-52
2024/04/05 06:51:16;;;;;;;;;;;15.00;99.90;;;;;;4994124;28;19906;-52
2024/04/05 06:53:42;;;;;;;;;;;15.00;99.90;;;;;;4993263;28;19944;-52
2024/04/05 06:56:08;;;;;;;;;;;15.20;99.90;;;;;;4994156;28;19910;-53
2024/04/05 06:58:34;;;;;;;;;;;15.20;99.90;;;;;;4993811;28;19992;-53
2024/04/05 07:01:01;;;;;;;;;;;15.40;99.90;;;;;;4994185;28;19941;-54
2024/04/05 07:03:27;;;;;;;;;;;15.50;99.90;;;;;;4993910;28;19997;-51
2024/04/05 07:05:59;;;;;;;;;;;16.00;99.90;;;;;;4994194;28;20354;-54
2024/04/05 07:08:26;;;;;;;;;;;16.20;99.90;;;;;;4994078;28;19931;-54
2024/04/05 07:10:52;;;;;;;;;;;16.60;99.90;;;;;;4994297;28;19952;-51
2024/04/05 07:13:17;;;;;;;;;;;17.10;99.90;;;;;;4994043;28;19913;-54
2024/04/05 07:15:43;;;;;;;;;;;17.60;99.90;;;;;;4993958;28;19960;-54
2024/04/05 07:18:09;;;;;;;;;;;17.80;99.90;;;;;;4994106;28;20402;-55
2024/04/05 07:20:36;;;;;;;;;;;18.00;99.90;;;;;;4993818;28;19948;-52
2024/04/05 07:23:02;;;;;;;;;;;17.80;99.90;;;;;;4993961;28;19906;-52
2024/04/05 07:25:27;;;;;;;;;;;17.70;99.90;;;;;;4994153;28;19914;-54
2024/04/05 07:27:54;;;;;;;;;;;17.40;99.90;;;;;;4993780;28;19916;-52
2024/04/05 07:30:23;;;;;;;;;;;17.20;99.90;;;;;;4994022;28;19913;-54
2024/04/05 07:32:49;;;;;;;;;;;16.80;99.90;;;;;;4993561;28;19905;-52
2024/04/05 07:35:15;;;;;;;;;;;16.50;99.90;;;;;;4993806;28;20370;-54
2024/04/05 07:37:40;;;;;;;;;;;16.10;99.90;;;;;;4976011;28;20349;-52
2024/04/05 07:40:06;;;;;;;;;;;15.90;99.90;;;;;;4993385;28;19952;-51
2024/04/05 07:42:32;;;;;;;;;;;15.70;99.90;;;;;;4993550;28;20325;-55
2024/04/05 07:44:59;;;;;;;;;;;15.50;99.90;;;;;;4993706;28;19914;-54
2024/04/05 07:47:25;;;;;;;;;;;15.40;99.90;;;;;;4993420;28;19909;-55
2024/04/05 07:49:51;;;;;;;;;;;15.20;99.90;;;;;;4993144;28;19921;-54
2024/04/05 07:52:17;;;;;;;;;;;15.10;99.90;;;;;;4995247;28;19909;-52
2024/04/05 07:54:43;;;;;;;;;;;15.20;99.90;;;;;;4996943;28;20560;-54
2024/04/05 07:57:08;;;;;;;;;;;15.30;99.90;;;;;;4996717;28;19913;-57
2024/04/05 07:59:36;;;;;;;;;;;15.40;99.90;;;;;;4996925;28;19909;-56
2024/04/05 08:02:01;;;;;;;;;;;15.60;99.90;;;;;;4997515;28;19910;-56
2024/04/05 08:04:27;;;;;;;;;;;15.80;99.90;;;;;;4996972;28;19916;-55
2024/04/05 08:06:57;;;;;;;;;;;16.00;99.90;;;;;;4997173;28;19909;-54
2024/04/05 08:09:26;;;;;;;;;;;16.30;99.90;;;;;;4996936;28;20432;-56
2024/04/05 08:11:52;;;;;;;;;;;16.40;99.90;;;;;;5006168;23;19950;-53
2024/04/05 08:14:17;;;;;;;;;;;16.80;99.90;;;;;;4981521;28;20042;-56
2024/04/05 08:16:43;;;;;;;;;;;17.10;99.90;;;;;;4980717;28;19910;-55
2024/04/05 08:19:08;;;;;;;;;;;17.20;99.90;;;;;;4981703;28;20349;-56
2024/04/05 08:21:33;;;;;;;;;;;17.30;99.90;;;;;;4987477;28;19913;-54
2024/04/05 08:23:59;;;;;;;;;;;17.20;99.90;;;;;;4999296;28;20004;-56
2024/04/05 08:26:25;;;;;;;;;;;17.20;99.90;;;;;;5000671;28;19956;-57
2024/04/05 08:28:51;;;;;;;;;;;16.90;99.90;;;;;;4999696;28;19906;-54
2024/04/05 08:31:16;;;;;;;;;;;16.70;99.90;;;;;;5001024;28;19906;-53
2024/04/05 08:33:41;;;;;;;;;;;16.50;99.90;;;;;;5001190;28;19937;-54
2024/04/05 08:36:07;;;;;;;;;;;16.40;99.90;;;;;;5000565;28;19941;-57
2024/04/05 08:38:33;;;;;;;;;;;16.30;99.90;;;;;;5000618;28;19905;-57
2024/04/05 08:40:58;;;;;;;;;;;16.20;99.90;;;;;;5000198;28;19917;-53
2024/04/05 08:43:26;;;;;;;;;;;16.20;99.90;;;;;;5000014;28;19905;-53
2024/04/05 08:45:52;;;;;;;;;;;16.10;99.90;;;;;;5001209;28;20404;-56
2024/04/05 08:48:20;;;;;;;;;;;16.00;99.90;;;;;;5001295;28;19917;-55
2024/04/05 08:50:47;;;;;;;;;;;15.90;99.90;;;;;;5001200;28;20008;-55
2024/04/05 08:53:12;;;;;;;;;;;15.80;99.90;;;;;;5001020;28;19913;-56
2024/04/05 08:55:38;;;;;;;;;;;15.80;99.90;;;;;;5000611;28;19910;-56
2024/04/05 08:58:04;;;;;;;;;;;15.80;99.90;;;;;;5000256;28;19906;-56
2024/04/05 09:00:30;;;;;;;;;;;15.80;99.90;;;;;;5000758;28;20333;-55
2024/04/05 09:02:56;;;;;;;;;;;15.70;99.90;;;;;;4998497;28;19937;-56
2024/04/05 09:05:25;;;;;;;;;;;15.70;99.90;;;;;;5000092;28;20358;-53
2024/04/05 09:08:01;;;;;;;;;;;15.70;99.90;;;;;;5000170;28;19909;-54
2024/04/05 09:10:26;;;;;;;;;;;15.80;99.90;;;;;;5000473;28;19913;-53
2024/04/05 09:12:52;;;;;;;;;;;15.90;99.90;;;;;;5000273;28;19913;-55
2024/04/05 09:15:19;;;;;;;;;;;16.10;99.90;;;;;;4987745;28;19911;-54
2024/04/05 09:17:44;;;;;;;;;;;16.20;99.90;;;;;;4998882;28;20363;-53
2024/04/05 09:20:12;;;;;;;;;;;16.40;99.90;;;;;;5000192;28;19913;-55
2024/04/05 09:22:38;;;;;;;;;;;16.50;99.90;;;;;;4998620;28;19929;-56
2024/04/05 09:25:04;;;;;;;;;;;16.60;99.90;;;;;;5000204;28;19910;-56
2024/04/05 09:27:30;;;;;;;;;;;16.60;99.90;;;;;;4999611;28;19909;-53
2024/04/05 09:30:02;;;;;;;;;;;16.80;99.90;;;;;;5000108;28;19909;-53
2024/04/05 09:32:28;;;;;;;;;;;16.90;99.90;;;;;;5000140;28;19909;-55
2024/04/05 09:34:54;;;;;;;;;;;17.10;99.90;;;;;;4999390;28;19976;-56
2024/04/05 09:37:21;;;;;;;;;;;17.40;99.90;;;;;;4999163;28;19906;-56
2024/04/05 09:39:48;;;;;;;;;;;17.70;99.90;;;;;;4999346;28;20396;-56
2024/04/05 09:42:15;;;;;;;;;;;17.90;99.90;;;;;;4999312;28;19918;-55
2024/04/05 09:44:41;;;;;;;;;;;18.20;99.90;;;;;;4999220;28;20277;-53
2024/04/05 09:47:06;;;;;;;;;;;18.40;99.90;;;;;;4999131;28;19916;-57
2024/04/05 09:49:32;;;;;;;;;;;18.40;99.90;;;;;;4998621;28;19937;-56
2024/04/05 09:51:59;;;;;;;;;;;18.50;99.90;;;;;;4998614;28;20033;-55
2024/04/05 09:54:27;;;;;;;;;;;18.40;99.90;;;;;;4998946;28;19906;-53
2024/04/05 09:56:52;;;;;;;;;;;18.20;99.90;;;;;;4998982;28;20358;-54
2024/04/05 09:59:21;;;;;;;;;;;17.90;99.90;;;;;;4999391;28;19955;-55
2024/04/05 10:01:47;;;;;;;;;;;17.50;99.90;;;;;;4998748;28;19969;-56
2024/04/05 10:04:12;;;;;;;;;;;17.20;99.90;;;;;;4998538;28;19960;-55
2024/04/05 10:06:38;;;;;;;;;;;17.10;99.90;;;;;;4997583;28;20380;-56
2024/04/05 10:09:25;;;;;;;;;;;17.00;99.90;;;;;;4998995;28;20308;-56
2024/04/05 10:11:51;;;;;;;;;;;17.10;99.90;;;;;;4998850;28;19913;-54
2024/04/05 10:14:27;;;;;;;;;;;17.10;99.90;;;;;;4997692;28;19912;-54
2024/04/05 10:17:04;;;;;;;;;;;17.30;99.90;;;;;;4998880;28;19906;-54
2024/04/05 10:19:30;;;;;;;;;;;17.50;99.90;;;;;;4998618;28;19909;-55
2024/04/05 10:22:19;;;;;;;;;;;17.60;99.90;;;;;;4997613;28;19906;-56
2024/04/05 10:24:45;;;;;;;;;;;17.80;99.90;;;;;;4979731;28;19914;-53
2024/04/05 10:27:21;;;;;;;;;;;17.80;99.90;;;;;;4998582;28;19987;-53
2024/04/05 10:29:55;;;;;;;;;;;17.60;99.90;;;;;;4998350;28;19917;-54
2024/04/05 10:32:21;;;;;;;;;;;17.50;99.90;;;;;;4996872;28;20302;-57
2024/04/05 10:34:46;;;;;;;;;;;17.50;99.90;;;;;;4998816;28;19917;-56
2024/04/05 10:37:14;;;;;;;;;;;17.40;99.90;;;;;;4997623;28;19906;-57
2024/04/05 10:39:40;;;;;;;;;;;17.40;99.90;;;;;;4997807;28;19928;-54
2024/04/05 10:42:06;;;;;;;;;;;17.40;99.90;;;;;;4997910;28;19965;-57
2024/04/05 10:44:31;;;;;;;;;;;17.20;99.90;;;;;;4997866;28;19909;-55
2024/04/05 10:46:57;;;;;;;;;;;17.10;99.90;;;;;;4997689;28;20284;-56
2024/04/05 10:49:22;;;;;;;;;;;16.90;99.90;;;;;;4997796;28;19906;-53
2024/04/05 10:51:48;;;;;;;;;;;16.80;99.90;;;;;;4997771;28;20154;-54
2024/04/05 10:54:14;;;;;;;;;;;16.70;99.90;;;;;;4997240;28;20056;-56
2024/04/05 10:56:41;;;;;;;;;;;16.70;99.90;;;;;;4997102;28;19967;-56
2024/04/05 10:59:07;;;;;;;;;;;16.60;99.90;;;;;;4997615;28;20365;-55
2024/04/05 11:01:34;;;;;;;;;;;16.60;99.90;;;;;;4997352;28;19906;-56
2024/04/05 11:04:00;;;;;;;;;;;16.70;99.90;;;;;;4997601;28;20431;-54
2024/04/05 11:06:25;;;;;;;;;;;16.60;99.90;;;;;;4996544;28;19910;-55
2024/04/05 11:08:55;;;;;;;;;;;16.70;99.90;;;;;;4997335;28;19913;-55
2024/04/05 11:11:21;;;;;;;;;;;16.70;99.90;;;;;;4997185;28;19914;-53
2024/04/05 11:13:47;;;;;;;;;;;16.70;99.90;;;;;;4995931;28;19902;-55
2024/04/05 11:16:15;;;;;;;;;;;16.60;99.90;;;;;;4997361;28;19906;-54
2024/04/05 11:18:40;;;;;;;;;;;16.50;99.90;;;;;;4998050;28;19906;-53
2024/04/05 11:21:12;;;;;;;;;;;16.50;99.90;;;;;;4997634;28;19952;-56
2024/04/05 11:23:46;;;;;;;;;;;16.50;99.90;;;;;;4993163;28;20362;-56
2024/04/05 11:26:18;;;;;;;;;;;16.60;99.90;;;;;;4999592;28;19918;-57
2024/04/05 11:28:45;;;;;;;;;;;16.60;99.90;;;;;;5001532;28;19914;-56
2024/04/05 11:31:10;;;;;;;;;;;16.70;99.90;;;;;;5001600;28;19921;-57
2024/04/05 11:33:36;;;;;;;;;;;16.70;99.90;;;;;;5001935;28;19931;-55
2024/04/05 11:36:01;;;;;;;;;;;16.80;99.90;;;;;;5001594;28;19912;-56
2024/04/05 11:38:27;;;;;;;;;;;16.70;99.90;;;;;;5002068;28;19913;-52
2024/04/05 11:40:52;;;;;;;;;;;16.70;99.90;;;;;;5001851;28;19941;-53
2024/04/05 11:43:19;;;;;;;;;;;16.70;99.90;;;;;;5002103;28;19945;-55
2024/04/05 11:45:45;;;;;;;;;;;16.70;99.90;;;;;;5001645;28;19906;-53
2024/04/05 11:48:10;;;;;;;;;;;16.70;99.90;;;;;;5001377;28;20278;-54
2024/04/05 11:50:36;;;;;;;;;;;16.70;99.90;;;;;;5001458;28;19941;-54
2024/04/05 11:53:01;;;;;;;;;;;16.80;99.90;;;;;;5001117;28;19906;-52
2024/04/05 11:55:27;;;;;;;;;;;16.80;99.90;;;;;;5001500;28;19906;-54
2024/04/05 11:57:53;;;;;;;;;;;16.80;99.90;;;;;;5001661;28;19912;-55
2024/04/05 12:00:18;;;;;;;;;;;16.80;99.90;;;;;;5001176;28;19909;-54
2024/04/05 12:02:44;;;;;;;;;;;16.70;99.90;;;;;;5000663;28;19912;-55
2024/04/05 12:05:09;;;;;;;;;;;16.70;99.90;;;;;;5001026;28;20281;-55
2024/04/05 12:07:35;;;;;;;;;;;16.70;99.90;;;;;;5001236;28;19910;-54
2024/04/05 12:10:01;;;;;;;;;;;16.70;99.90;;;;;;5001105;28;19937;-55
2024/04/05 12:12:28;;;;;;;;;;;16.70;99.90;;;;;;5001499;28;19913;-52
2024/04/05 12:14:55;;;;;;;;;;;16.70;99.90;;;;;;5000567;28;19949;-54
2024/04/05 12:17:21;;;;;;;;;;;16.80;99.90;;;;;;5001039;28;19989;-53
2024/04/05 12:19:50;;;;;;;;;;;16.90;99.90;;;;;;5000884;28;19997;-55
2024/04/05 12:22:16;;;;;;;;;;;17.00;99.90;;;;;;5000788;28;20000;-55
2024/04/05 12:24:41;;;;;;;;;;;17.20;99.90;;;;;;4999568;28;19948;-55
2024/04/05 12:27:06;;;;;;;;;;;17.30;99.90;;;;;;4982193;28;19913;-52
2024/04/05 12:29:32;;;;;;;;;;;17.40;99.90;;;;;;5000491;28;20432;-53
2024/04/05 12:31:57;;;;;;;;;;;17.40;99.90;;;;;;5000416;28;19909;-55
2024/04/05 12:34:23;;;;;;;;;;;17.40;99.90;;;;;;5000711;28;19916;-53
2024/04/05 12:36:50;;;;;;;;;;;17.40;99.90;;;;;;5000321;28;20004;-55
2024/04/05 12:39:24;;;;;;;;;;;17.40;99.90;;;;;;5000439;28;19955;-54
2024/04/05 12:41:53;;;;;;;;;;;17.30;99.90;;;;;;4999973;28;19905;-56
2024/04/05 12:44:18;;;;;;;;;;;17.20;99.90;;;;;;4998652;28;19921;-54
2024/04/05 12:46:47;;;;;;;;;;;17.30;99.90;;;;;;4999939;28;19906;-53
2024/04/05 12:49:12;;;;;;;;;;;17.20;99.90;;;;;;4999875;28;20289;-53
2024/04/05 12:51:38;;;;;;;;;;;17.30;99.90;;;;;;5000135;28;20004;-56
2024/04/05 12:54:03;;;;;;;;;;;17.30;99.90;;;;;;5000277;28;19906;-55
2024/04/05 12:56:30;;;;;;;;;;;17.30;99.90;;;;;;5000485;28;19912;-55
2024/04/05 12:58:57;;;;;;;;;;;17.40;99.90;;;;;;4999053;28;19906;-54
2024/04/05 13:01:22;;;;;;;;;;;17.40;99.90;;;;;;4999797;28;19961;-55
2024/04/05 13:03:48;;;;;;;;;;;17.30;99.90;;;;;;4998070;28;19910;-55
2024/04/05 13:06:14;;;;;;;;;;;17.30;99.90;;;;;;4999173;28;19913;-53
2024/04/05 13:08:41;;;;;;;;;;;17.20;99.90;;;;;;4999430;28;19910;-54
2024/04/05 13:11:07;;;;;;;;;;;17.20;99.90;;;;;;4999111;28;19906;-55
2024/04/05 13:13:32;;;;;;;;;;;17.20;99.90;;;;;;4999426;28;20000;-53
2024/04/05 13:15:59;;;;;;;;;;;17.30;99.90;;;;;;5004666;28;19913;-54
2024/04/05 13:18:26;;;;;;;;;;;17.30;99.90;;;;;;5019006;28;19906;-53
2024/04/05 13:21:02;;;;;;;;;;;17.30;99.90;;;;;;5019206;28;19909;-56
2024/04/05 13:23:27;;;;;;;;;;;17.40;99.90;;;;;;5018838;28;19940;-52
2024/04/05 13:25:53;;;;;;;;;;;17.50;99.90;;;;;;5000190;28;19917;-55
2024/04/05 13:28:18;;;;;;;;;;;17.50;99.90;;;;;;5018495;28;19913;-54
2024/04/05 13:30:43;;;;;;;;;;;17.60;99.90;;;;;;5018597;28;20300;-55
2024/04/05 13:33:09;;;;;;;;;;;17.60;99.90;;;;;;5018369;28;19906;-55
2024/04/05 13:35:35;;;;;;;;;;;17.60;99.90;;;;;;5018689;28;19905;-55
2024/04/05 13:38:04;;;;;;;;;;;17.70;99.90;;;;;;5018653;28;20332;-53
2024/04/05 13:40:29;;;;;;;;;;;17.70;99.90;;;;;;5019232;28;19929;-53
2024/04/05 13:42:54;;;;;;;;;;;17.60;99.90;;;;;;5018514;28;20357;-52
2024/04/05 13:45:20;;;;;;;;;;;17.50;99.90;;;;;;5018055;28;20288;-55
2024/04/05 13:47:45;;;;;;;;;;;17.60;99.90;;;;;;5018427;28;19909;-55
2024/04/05 13:50:13;;;;;;;;;;;17.60;99.90;;;;;;5016841;28;19952;-55
2024/04/05 13:52:38;;;;;;;;;;;17.60;99.90;;;;;;5017183;28;19972;-54
2024/04/05 13:55:05;;;;;;;;;;;17.60;99.90;;;;;;5017633;28;20327;-56
2024/04/05 13:57:30;;;;;;;;;;;17.70;99.90;;;;;;5018247;28;19963;-55
2024/04/05 13:59:56;;;;;;;;;;;17.80;99.90;;;;;;5018677;28;19906;-55
2024/04/05 14:02:21;;;;;;;;;;;17.80;99.90;;;;;;5018360;28;19912;-55
2024/04/05 14:04:47;;;;;;;;;;;17.80;99.90;;;;;;5018872;28;19905;-54
2024/04/05 14:07:12;;;;;;;;;;;17.80;99.90;;;;;;5018194;28;20467;-54
2024/04/05 14:09:39;;;;;;;;;;;17.80;99.90;;;;;;5016824;28;19913;-54
2024/04/05 14:12:05;;;;;;;;;;;17.80;99.90;;;;;;5031210;22;19913;-58